createdAt,value
2018-08-11T00:10:42.450Z,4.8
2018-08-11T00:30:42.338Z,3.6
2018-08-11T00:45:42.339Z,4.1
2018-08-11T01:00:54.270Z,4
2018-08-11T01:15:54.378Z,4.6
2018-08-11T01:36:07.544Z,4
2018-08-11T01:51:07.380Z,3.1
2018-08-11T02:06:07.519Z,2.7
2018-08-11T02:26:18.212Z,2.3
2018-08-11T02:41:18.192Z,2.5
2018-08-11T02:56:18.216Z,3.1
2018-08-11T03:11:18.232Z,3.4
2018-08-11T03:31:29.827Z,2.2
2018-08-11T03:46:29.587Z,3.4
2018-08-11T04:36:40.786Z,2.7
2018-08-11T04:51:40.819Z,2.6
2018-08-11T05:11:40.852Z,3.3
2018-08-11T05:26:54.096Z,3.5
2018-08-11T06:17:05.702Z,6.8
2018-08-11T06:47:07.615Z,11.1
2018-08-11T07:22:18.623Z,8.3
2018-08-11T08:12:32.046Z,5.2
2018-08-11T08:42:45.556Z,3.3
2018-08-11T09:33:00.887Z,3.1
2018-08-11T09:52:59.060Z,2.9
2018-08-11T10:07:59.122Z,2.2
2018-08-11T10:23:12.039Z,1.6
2018-08-11T10:38:11.028Z,2.1
2018-08-11T10:58:11.046Z,1.6
2018-08-11T11:13:22.526Z,1.5
2018-08-11T11:28:22.421Z,1.3
2018-08-11T11:48:23.121Z,1.4
2018-08-11T12:18:35.508Z,1.3
2018-08-11T12:38:35.399Z,1.3
2018-08-11T12:53:35.856Z,1.8
2018-08-11T13:08:46.983Z,1.5
2018-08-11T13:43:47.275Z,1.6
2018-08-11T14:14:01.193Z,1.5
2018-08-11T14:34:14.751Z,1.3
2018-08-11T15:19:31.236Z,1.9
2018-08-11T15:39:31.209Z,1.6
2018-08-11T15:54:31.360Z,1.6
2018-08-11T16:09:32.859Z,1.6
2018-08-11T16:29:42.586Z,1.9
2018-08-11T16:44:42.326Z,1.9
2018-08-11T17:34:53.700Z,2.5
2018-08-11T18:05:10.288Z,1.7
2018-08-11T18:25:10.520Z,1.5
2018-08-11T18:40:10.546Z,1.3
2018-08-11T18:55:23.930Z,1.8
2018-08-11T19:10:24.159Z,1.5
2018-08-11T19:30:38.462Z,2.4
2018-08-11T20:00:38.195Z,2.3
2018-08-11T20:20:50.831Z,2.1
2018-08-11T20:35:50.865Z,1.9
2018-08-11T20:50:50.843Z,2.7
2018-08-11T21:05:50.894Z,2.9
2018-08-11T21:25:50.905Z,2.1
2018-08-11T21:40:50.674Z,3.3
2018-08-11T21:55:51.098Z,2.5
2018-08-11T22:16:07.717Z,2
2018-08-11T22:31:07.510Z,2.4
2018-08-11T22:46:07.631Z,2.7
2018-08-11T23:06:20.035Z,3
2018-08-11T23:21:19.901Z,2.7
2018-08-11T23:36:25.303Z,3.1
2018-08-11T23:51:37.338Z,2.8
